Página principal
METAR-TAF:

METAR-TAF

Aeroportos :

Moscovo-Sheremetyevo, Rússia

Aeroporto Moscovo Sheremetievo

latitude: 55-59N, longitude: 037-30E, altura: 190 m

Observação actual do tempo

O boletim foi feito há 31 minutos, às 13:00 UTC
Vento 10 kt de oeste
Temperatura -9°C
Humidade 67%
Pressão 1022 hPa
Visibilidade 10 km ou mais
Nuvens fragmentadasa uma altura de 2100 ft

METAR: UUEE 211300Z 28005MPS 9999 BKN021 M09/M14 Q1022 R24R/420340 R24L/420351 NOSIG

Hora: 16:31 (13:31 UTC)

Previsão

O boletim foi feito há 23 horas e 41 minutos, às 13:50 UTC
Previsão válida de 20 às 15 UTC a 21 às 15 UTC
Vento 10 kt de oes-noroeste
Visibilidade: 6000 m
Nuvens fragmentadasa uma altura de 1100 ft
Temporariamente
de 20 às 15 UTC a 20 às 21 UTC
Visibilidade: 3100 m
Nuvens dispersasa uma altura de 1200 ft, Cumulonimbus.
aguaceiros fracos de neve

TAF: UUEE 201350Z 2015/2115 30005MPS 6000 BKN011 TXM09/2015Z TNM16/2103Z TEMPO 2015/2021 3100 -SHSN SCT012CB

Observações e previsões do tempo de mais de 4000 aeroportos (mensagens METAR e TAF).

As estações disponíveis são os pontos amarelos e vermelhos sobre o mapa.

Mova o rato sobre o mapa para ver o nome da estação.

Depois clique no ponto para visualizar as observações e previsões meteorológicas.

Para alterar o mapa : clique nos botões verdes com uma cruz preta para aumentar o zoom; no botão verde com uma pitada de zoom; ou nas setas verdes para mapas adjacentes.


METAR-TAF: